Time;durP1;ratioP1;P1;durP2;ratioP2;P2;SDS_P1;SDS_P2;PMS_P1;PMS_P2;Temp;Humidity;BMP_temperature;BMP_pressure;BME280_temperature;BME280_humidity;BME280_pressure;Samples;Min_cycle;Max_cycle;Signal;HPM_P1;HPM_P2
2024/01/09 00:00:57;;;;;;;8.63;6.70;;;-2.60;99.90;;;;;;5121066;27;20066;-67
2024/01/09 00:03:23;;;;;;;8.40;6.57;;;-2.60;99.90;;;;;;5135358;27;20043;-67
2024/01/09 00:05:48;;;;;;;8.97;6.57;;;-2.70;99.90;;;;;;5121364;27;20046;-67
2024/01/09 00:08:14;;;;;;;9.53;6.70;;;-2.70;99.90;;;;;;5116592;27;20683;-67
2024/01/09 00:10:40;;;;;;;10.80;7.30;;;-2.60;99.90;;;;;;5104299;27;20074;-67
2024/01/09 00:13:05;;;;;;;8.60;6.30;;;-2.70;99.90;;;;;;5120948;27;20038;-67
2024/01/09 00:15:31;;;;;;;11.07;7.10;;;-2.80;99.90;;;;;;5119589;27;20198;-67
2024/01/09 00:17:57;;;;;;;10.30;6.63;;;-2.80;99.90;;;;;;5128892;27;20046;-67
2024/01/09 00:20:23;;;;;;;12.13;6.73;;;-2.70;99.90;;;;;;5125316;27;20130;-67
2024/01/09 00:22:53;;;;;;;9.03;6.90;;;-2.80;99.90;;;;;;5124113;27;20148;-67
2024/01/09 00:25:19;;;;;;;9.20;6.25;;;-2.80;99.90;;;;;;5116337;27;20144;-67
2024/01/09 00:27:46;;;;;;;9.20;6.20;;;-2.80;99.90;;;;;;5123401;27;20096;-67
2024/01/09 00:30:12;;;;;;;9.37;6.77;;;-2.90;99.90;;;;;;5123387;27;20493;-67
2024/01/09 00:32:38;;;;;;;9.43;6.00;;;-2.90;99.90;;;;;;5119038;27;20039;-67
2024/01/09 00:35:05;;;;;;;9.27;6.57;;;-3.00;99.90;;;;;;5117980;27;20957;-67
2024/01/09 00:37:31;;;;;;;9.57;7.00;;;-3.00;99.90;;;;;;5121007;27;20509;-67
2024/01/09 00:39:56;;;;;;;9.53;6.63;;;-3.10;99.90;;;;;;5116510;27;20074;-67
2024/01/09 00:42:25;;;;;;;8.73;6.57;;;-3.00;99.90;;;;;;5111616;27;20119;-68
2024/01/09 00:44:51;;;;;;;9.50;6.63;;;-3.00;99.90;;;;;;5123706;27;20413;-67
2024/01/09 00:47:16;;;;;;;10.90;7.03;;;-3.00;99.90;;;;;;5119684;27;20046;-67
2024/01/09 00:49:45;;;;;;;9.03;6.53;;;-3.10;99.90;;;;;;5115700;27;20121;-67
2024/01/09 00:52:11;;;;;;;9.73;6.70;;;-3.10;99.90;;;;;;5123094;27;20031;-67
2024/01/09 00:54:42;;;;;;;9.40;6.70;;;-3.20;99.90;;;;;;5116226;27;20047;-73
2024/01/09 00:57:07;;;;;;;8.90;6.60;;;-3.20;99.90;;;;;;5112653;27;20083;-72
2024/01/09 00:59:33;;;;;;;9.53;6.47;;;-3.20;99.90;;;;;;5111225;27;20055;-73
2024/01/09 01:01:59;;;;;;;10.53;6.97;;;-3.20;99.90;;;;;;5113304;27;20043;-73
2024/01/09 01:04:27;;;;;;;12.10;7.27;;;-3.10;99.90;;;;;;5119588;27;20063;-73
2024/01/09 01:06:53;;;;;;;9.07;7.00;;;-3.10;99.90;;;;;;5105830;27;20121;-73
2024/01/09 01:09:19;;;;;;;10.00;6.57;;;-3.10;99.90;;;;;;5113539;27;20142;-73
2024/01/09 01:11:45;;;;;;;10.20;6.60;;;-3.10;99.90;;;;;;5114623;27;20045;-73
2024/01/09 01:14:11;;;;;;;11.17;6.73;;;-3.20;99.90;;;;;;5112747;27;20622;-72
2024/01/09 01:16:37;;;;;;;9.83;6.00;;;-3.20;99.90;;;;;;5107957;27;20051;-72
2024/01/09 01:19:02;;;;;;;9.60;6.70;;;-3.20;99.90;;;;;;5120826;27;20103;-74
2024/01/09 01:21:28;;;;;;;8.67;6.20;;;-3.30;99.90;;;;;;5117990;27;20061;-73
2024/01/09 01:23:54;;;;;;;9.93;6.60;;;-3.30;99.90;;;;;;5111215;27;20162;-73
2024/01/09 01:26:19;;;;;;;7.70;5.70;;;-3.30;99.90;;;;;;5104396;27;20063;-72
2024/01/09 01:28:45;;;;;;;9.23;6.73;;;-3.40;99.90;;;;;;5122273;27;20111;-72
2024/01/09 01:31:11;;;;;;;10.13;6.47;;;-3.40;99.90;;;;;;5121083;27;20073;-72
2024/01/09 01:33:37;;;;;;;8.90;5.67;;;-3.30;99.90;;;;;;5124933;27;20031;-73
2024/01/09 01:36:03;;;;;;;10.83;6.40;;;-3.40;99.90;;;;;;5113929;27;20046;-72
2024/01/09 01:38:28;;;;;;;8.53;6.07;;;-3.30;99.90;;;;;;5119153;27;20373;-73
2024/01/09 01:40:54;;;;;;;9.17;6.60;;;-3.30;99.90;;;;;;5127201;27;20142;-73
2024/01/09 01:43:20;;;;;;;8.43;6.13;;;-3.30;99.90;;;;;;5113455;27;20084;-74
2024/01/09 01:45:45;;;;;;;8.73;6.20;;;-3.40;99.90;;;;;;5110020;27;20154;-73
2024/01/09 01:48:11;;;;;;;11.13;6.30;;;-3.40;99.90;;;;;;5127457;27;20030;-72
2024/01/09 01:50:38;;;;;;;8.80;5.93;;;-3.40;99.90;;;;;;5125961;27;20042;-72
2024/01/09 01:53:06;;;;;;;8.93;5.93;;;-3.40;99.90;;;;;;5114530;27;20031;-72
2024/01/09 01:55:33;;;;;;;14.50;5.97;;;-3.40;99.90;;;;;;5119637;27;20441;-73
2024/01/09 01:58:00;;;;;;;8.27;5.80;;;-3.40;99.90;;;;;;5119696;27;20042;-72
2024/01/09 02:00:27;;;;;;;8.27;6.10;;;-3.40;99.90;;;;;;5120378;27;20457;-67
2024/01/09 02:02:54;;;;;;;10.53;6.40;;;-3.40;99.90;;;;;;5097259;27;20785;-67
2024/01/09 02:05:25;;;;;;;8.50;6.00;;;-3.40;99.90;;;;;;5119178;27;20043;-73
2024/01/09 02:07:53;;;;;;;9.80;5.70;;;-3.40;99.90;;;;;;5124539;27;20087;-73
2024/01/09 02:10:23;;;;;;;10.30;6.70;;;-3.40;99.90;;;;;;5125047;27;20047;-73
2024/01/09 02:12:50;;;;;;;8.32;6.18;;;-3.40;99.90;;;;;;5117180;27;20043;-73
2024/01/09 02:15:16;;;;;;;10.93;6.57;;;-3.40;99.90;;;;;;5124880;27;20154;-72
2024/01/09 02:17:45;;;;;;;8.87;6.70;;;-3.40;99.90;;;;;;5126248;27;20535;-74
2024/01/09 02:20:11;;;;;;;10.13;6.57;;;-3.40;99.90;;;;;;5123882;27;20042;-73
2024/01/09 02:22:37;;;;;;;8.20;6.50;;;-3.40;99.90;;;;;;5128604;27;20039;-73
2024/01/09 02:25:03;;;;;;;10.67;7.03;;;-3.40;99.90;;;;;;5118025;27;20672;-67
2024/01/09 02:27:34;;;;;;;8.33;5.93;;;-3.40;99.90;;;;;;5120890;27;20045;-67
2024/01/09 02:30:00;;;;;;;10.00;6.40;;;-3.40;99.90;;;;;;5124580;27;20047;-67
2024/01/09 02:32:26;;;;;;;10.70;6.90;;;-3.40;99.90;;;;;;5110759;27;20038;-67
2024/01/09 02:34:52;;;;;;;8.70;6.50;;;-3.40;99.90;;;;;;5117000;27;20695;-68
2024/01/09 02:37:18;;;;;;;9.70;6.50;;;-3.40;99.90;;;;;;5130941;27;20436;-67
2024/01/09 02:39:44;;;;;;;9.47;6.60;;;-3.30;99.90;;;;;;5127554;27;20054;-67
2024/01/09 02:42:10;;;;;;;10.27;7.40;;;-3.50;99.90;;;;;;5123260;27;20043;-67
2024/01/09 02:44:35;;;;;;;10.83;6.70;;;-3.50;99.90;;;;;;5116209;27;20172;-67
2024/01/09 02:47:01;;;;;;;12.10;7.13;;;-3.50;99.90;;;;;;5118097;27;20043;-69
2024/01/09 02:49:27;;;;;;;11.93;7.03;;;-3.50;99.90;;;;;;5115922;27;20043;-68
2024/01/09 02:51:53;;;;;;;9.60;6.73;;;-3.50;99.90;;;;;;5118879;27;20119;-67
2024/01/09 02:54:21;;;;;;;9.17;6.80;;;-3.50;99.90;;;;;;5127080;27;20804;-68
2024/01/09 02:56:47;;;;;;;11.67;6.93;;;-3.40;99.90;;;;;;5125357;27;20398;-67
2024/01/09 02:59:13;;;;;;;9.73;6.57;;;-3.40;99.90;;;;;;5123010;27;20043;-68
2024/01/09 03:01:39;;;;;;;11.37;4.53;;;-3.40;99.90;;;;;;5125691;27;20045;-68
2024/01/09 03:04:05;;;;;;;11.13;6.73;;;-3.40;99.90;;;;;;5110393;27;20057;-68
2024/01/09 03:06:31;;;;;;;9.40;6.80;;;-3.40;99.90;;;;;;5132036;27;20087;-68
2024/01/09 03:08:57;;;;;;;10.40;6.93;;;-3.50;99.90;;;;;;5123826;27;20440;-68
2024/01/09 03:11:22;;;;;;;8.67;5.40;;;-3.50;99.90;;;;;;5130462;27;20043;-68
2024/01/09 03:13:48;;;;;;;9.03;6.20;;;-3.50;99.90;;;;;;5132979;27;20511;-68
2024/01/09 03:16:16;;;;;;;8.30;6.17;;;-3.50;99.90;;;;;;5113939;27;20047;-68
2024/01/09 03:18:43;;;;;;;9.33;6.50;;;-3.50;99.90;;;;;;5148071;27;20082;-68
2024/01/09 03:21:12;;;;;;;11.03;6.93;;;-3.50;99.90;;;;;;5131478;27;20097;-68
2024/01/09 03:23:38;;;;;;;8.10;5.90;;;-3.50;99.90;;;;;;5102874;27;20035;-68
2024/01/09 03:26:03;;;;;;;5.97;4.23;;;-3.50;99.90;;;;;;5126870;27;20095;-68
2024/01/09 03:28:29;;;;;;;13.63;6.27;;;-3.50;99.90;;;;;;5116542;27;20505;-68
2024/01/09 03:30:55;;;;;;;9.53;6.60;;;-3.50;99.90;;;;;;5148120;27;20056;-68
2024/01/09 03:33:21;;;;;;;11.37;6.97;;;-3.50;99.90;;;;;;5111071;27;20030;-68
2024/01/09 03:35:47;;;;;;;8.57;6.37;;;-3.50;99.90;;;;;;5133631;27;20510;-68
2024/01/09 03:38:13;;;;;;;10.17;6.93;;;-3.50;99.90;;;;;;5129623;27;20046;-68
2024/01/09 03:40:38;;;;;;;9.20;6.13;;;-3.60;99.90;;;;;;5122726;27;20442;-68
2024/01/09 03:43:07;;;;;;;7.63;4.23;;;-3.60;99.90;;;;;;5122909;27;20043;-73
2024/01/09 03:45:33;;;;;;;9.47;6.27;;;-3.70;99.90;;;;;;5124058;27;20039;-73
2024/01/09 03:47:59;;;;;;;9.73;6.37;;;-3.70;99.90;;;;;;5121773;27;20125;-73
2024/01/09 03:50:27;;;;;;;8.33;6.17;;;-3.80;99.90;;;;;;5125258;27;20042;-72
2024/01/09 03:52:53;;;;;;;9.53;5.23;;;-3.80;99.90;;;;;;5121368;27;20067;-73
2024/01/09 03:55:19;;;;;;;10.93;6.33;;;-3.80;99.90;;;;;;5130532;27;20038;-73
2024/01/09 03:57:45;;;;;;;8.37;6.53;;;-3.80;99.90;;;;;;5137511;27;20051;-72
2024/01/09 04:00:11;;;;;;;8.47;6.17;;;-3.80;99.90;;;;;;5143731;27;20141;-73
2024/01/09 04:02:37;;;;;;;9.73;6.03;;;-3.80;99.90;;;;;;5109757;27;20089;-73
2024/01/09 04:05:05;;;;;;;10.07;6.83;;;-3.90;99.90;;;;;;5138889;27;20038;-73
2024/01/09 04:07:31;;;;;;;8.97;6.20;;;-3.90;99.90;;;;;;5118906;27;20432;-74
2024/01/09 04:09:57;;;;;;;9.47;6.50;;;-3.90;99.90;;;;;;5122902;27;20091;-73
2024/01/09 04:12:22;;;;;;;11.20;5.97;;;-3.90;99.90;;;;;;5129398;27;20047;-73
2024/01/09 04:14:48;;;;;;;8.33;6.00;;;-3.80;99.90;;;;;;5118453;27;20046;-73
2024/01/09 04:17:14;;;;;;;9.73;6.20;;;-3.80;99.90;;;;;;5126882;27;20055;-72
2024/01/09 04:19:40;;;;;;;9.37;6.00;;;-3.80;99.90;;;;;;5140599;27;20026;-73
2024/01/09 04:22:09;;;;;;;9.73;6.70;;;-3.80;99.90;;;;;;5119223;27;20046;-73
2024/01/09 04:24:34;;;;;;;8.67;6.20;;;-3.80;99.90;;;;;;5124549;27;20125;-73
2024/01/09 04:27:02;;;;;;;8.83;6.20;;;-3.90;99.90;;;;;;5144135;27;20137;-73
2024/01/09 04:29:28;;;;;;;8.80;6.00;;;-3.90;99.90;;;;;;5124546;27;20095;-73
2024/01/09 04:31:54;;;;;;;8.83;6.30;;;-3.90;99.90;;;;;;5134488;27;20054;-73
2024/01/09 04:34:20;;;;;;;11.57;6.80;;;-3.90;99.90;;;;;;5125040;27;20134;-73
2024/01/09 04:36:46;;;;;;;10.83;5.63;;;-4.00;99.90;;;;;;5113660;27;20046;-73
2024/01/09 04:39:12;;;;;;;7.93;5.83;;;-4.00;99.90;;;;;;5127341;27;20483;-73
2024/01/09 04:41:37;;;;;;;8.63;5.90;;;-4.00;99.90;;;;;;5124005;27;20091;-73
2024/01/09 04:44:06;;;;;;;9.43;6.30;;;-4.00;99.90;;;;;;5125293;27;20061;-72
2024/01/09 04:46:32;;;;;;;9.60;6.13;;;-4.00;99.90;;;;;;5123940;27;20095;-72
2024/01/09 04:48:58;;;;;;;8.67;6.13;;;-4.00;99.90;;;;;;5123550;27;20134;-73
2024/01/09 04:51:23;;;;;;;9.90;6.50;;;-4.10;99.90;;;;;;5114294;27;20496;-73
2024/01/09 04:53:49;;;;;;;9.47;6.93;;;-4.00;99.90;;;;;;5127475;27;20034;-73
2024/01/09 04:56:15;;;;;;;9.43;6.27;;;-4.00;99.90;;;;;;5114432;27;20456;-73
2024/01/09 04:58:41;;;;;;;9.77;6.53;;;-4.10;99.90;;;;;;5115952;27;20046;-73
2024/01/09 05:01:13;;;;;;;8.60;5.93;;;-4.10;99.90;;;;;;5123516;27;20053;-71
2024/01/09 05:03:39;;;;;;;8.60;6.33;;;-4.10;99.90;;;;;;5115121;27;20434;-72
2024/01/09 05:06:04;;;;;;;9.43;5.90;;;-4.10;99.90;;;;;;5126187;27;20042;-66
2024/01/09 05:08:30;;;;;;;8.93;6.50;;;-4.10;99.90;;;;;;5104931;28;20492;-71
2024/01/09 05:10:56;;;;;;;8.47;6.03;;;-4.10;99.90;;;;;;5101973;27;20563;-74
2024/01/09 05:13:21;;;;;;;8.83;6.43;;;-4.10;99.90;;;;;;5141341;27;20089;-75
2024/01/09 05:15:47;;;;;;;8.57;6.13;;;-4.20;99.90;;;;;;5133633;27;20039;-75
2024/01/09 05:18:13;;;;;;;9.17;6.33;;;-4.10;99.90;;;;;;5127433;27;20038;-75
2024/01/09 05:20:38;;;;;;;7.63;5.50;;;-4.20;99.90;;;;;;5132146;27;20062;-75
2024/01/09 05:23:05;;;;;;;8.37;4.90;;;-4.10;99.90;;;;;;5147014;27;20479;-74
2024/01/09 05:25:30;;;;;;;8.57;5.83;;;-4.10;99.90;;;;;;5124991;27;20076;-75
2024/01/09 05:27:56;;;;;;;8.77;5.97;;;-4.20;99.90;;;;;;5110005;27;20551;-74
2024/01/09 05:30:22;;;;;;;6.50;3.13;;;-4.20;99.90;;;;;;5125674;27;20051;-72
2024/01/09 05:32:48;;;;;;;8.50;5.63;;;-4.20;99.90;;;;;;5113230;27;20637;-67
2024/01/09 05:35:13;;;;;;;8.23;6.00;;;-4.30;99.90;;;;;;5122041;27;20097;-67
2024/01/09 05:37:39;;;;;;;8.37;4.87;;;-4.30;99.90;;;;;;5121939;27;20507;-67
2024/01/09 05:40:06;;;;;;;9.10;6.33;;;-4.30;99.90;;;;;;5112439;27;20057;-67
2024/01/09 05:42:31;;;;;;;8.20;5.57;;;-4.30;99.90;;;;;;5128197;27;20042;-67
2024/01/09 05:44:57;;;;;;;5.47;3.57;;;-4.30;99.90;;;;;;5116158;27;20039;-67
2024/01/09 05:47:23;;;;;;;8.40;5.57;;;-4.30;99.90;;;;;;5116671;27;20085;-67
2024/01/09 05:49:49;;;;;;;8.20;5.70;;;-4.40;99.90;;;;;;5112823;27;20063;-67
2024/01/09 05:52:14;;;;;;;6.10;4.67;;;-4.40;99.90;;;;;;5125694;27;20046;-67
2024/01/09 05:54:45;;;;;;;8.17;5.97;;;-4.40;99.90;;;;;;5129441;27;20117;-67
2024/01/09 05:57:11;;;;;;;7.77;5.10;;;-4.40;99.90;;;;;;5123707;27;20050;-67
2024/01/09 05:59:37;;;;;;;8.27;4.53;;;-4.50;99.90;;;;;;5119423;27;20040;-67
2024/01/09 06:02:07;;;;;;;6.33;4.40;;;-4.50;99.90;;;;;;5116583;27;20047;-72
2024/01/09 06:04:32;;;;;;;8.95;5.70;;;-4.60;99.90;;;;;;5134299;27;20132;-73
2024/01/09 06:06:58;;;;;;;10.80;6.37;;;-4.60;99.90;;;;;;5123652;27;20051;-72
2024/01/09 06:09:24;;;;;;;7.10;4.77;;;-4.70;99.90;;;;;;5123182;27;20498;-73
2024/01/09 06:11:49;;;;;;;9.47;6.20;;;-4.60;99.90;;;;;;5107557;27;20047;-75
2024/01/09 06:14:15;;;;;;;7.90;5.17;;;-4.70;99.90;;;;;;5118155;27;20361;-72
2024/01/09 06:16:41;;;;;;;7.43;5.60;;;-4.60;99.90;;;;;;5119416;27;20039;-72
2024/01/09 06:19:07;;;;;;;8.10;6.00;;;-4.60;99.90;;;;;;5105676;27;20047;-73
2024/01/09 06:21:33;;;;;;;6.43;3.87;;;-4.60;99.90;;;;;;5124274;27;20039;-68
2024/01/09 06:23:59;;;;;;;8.77;5.93;;;-4.60;99.90;;;;;;5110615;27;20047;-67
2024/01/09 06:26:25;;;;;;;8.33;6.17;;;-4.70;99.90;;;;;;5124486;27;20613;-67
2024/01/09 06:28:51;;;;;;;6.27;3.50;;;-4.70;99.90;;;;;;5119354;27;20050;-67
2024/01/09 06:31:16;;;;;;;8.70;6.13;;;-4.80;99.90;;;;;;5122321;27;20592;-68
2024/01/09 06:33:42;;;;;;;7.60;5.03;;;-4.80;99.90;;;;;;5119985;27;20046;-66
2024/01/09 06:36:08;;;;;;;8.60;5.77;;;-4.80;99.90;;;;;;5114075;27;20065;-67
2024/01/09 06:38:34;;;;;;;10.17;5.93;;;-4.80;99.90;;;;;;5120190;27;20043;-67
2024/01/09 06:40:59;;;;;;;8.47;5.63;;;-4.80;99.90;;;;;;5101925;27;20074;-67
2024/01/09 06:43:25;;;;;;;9.33;6.40;;;-4.80;99.90;;;;;;5118929;27;20556;-66
2024/01/09 06:45:51;;;;;;;9.53;5.73;;;-4.90;99.90;;;;;;5119048;27;21860;-69
2024/01/09 06:48:17;;;;;;;8.00;4.53;;;-4.80;99.90;;;;;;5137180;27;20043;-70
2024/01/09 06:50:43;;;;;;;10.70;6.27;;;-4.80;99.90;;;;;;5118645;27;20051;-70
2024/01/09 06:53:09;;;;;;;6.23;4.13;;;-4.90;99.90;;;;;;5123428;27;20043;-69
2024/01/09 06:55:35;;;;;;;8.57;6.00;;;-4.90;99.90;;;;;;5119854;27;20098;-70
2024/01/09 06:58:03;;;;;;;9.47;5.87;;;-4.90;99.90;;;;;;5136557;27;20075;-69
2024/01/09 07:00:29;;;;;;;8.07;5.60;;;-4.90;99.90;;;;;;5115372;27;20118;-70
2024/01/09 07:02:54;;;;;;;8.63;5.73;;;-4.90;99.90;;;;;;5121354;27;20126;-70
2024/01/09 07:05:20;;;;;;;8.50;5.50;;;-4.90;99.90;;;;;;5122763;27;20050;-70
2024/01/09 07:07:46;;;;;;;7.27;4.33;;;-4.90;99.90;;;;;;5119304;27;20055;-69
2024/01/09 07:10:12;;;;;;;7.77;5.90;;;-4.90;99.90;;;;;;5115959;27;20401;-70
2024/01/09 07:12:38;;;;;;;8.33;5.57;;;-4.90;99.90;;;;;;5118269;27;20095;-72
2024/01/09 07:15:07;;;;;;;7.97;5.00;;;-5.00;99.90;;;;;;5115398;27;20429;-71
2024/01/09 07:17:34;;;;;;;8.07;4.72;;;-5.00;99.90;;;;;;5114173;27;20039;-72
2024/01/09 07:20:00;;;;;;;7.77;5.23;;;-5.10;99.90;;;;;;5125324;27;20039;-71
2024/01/09 07:22:26;;;;;;;10.67;6.20;;;-5.10;99.90;;;;;;5124097;27;20038;-72
2024/01/09 07:24:51;;;;;;;7.83;6.00;;;-5.10;99.90;;;;;;5107746;27;20074;-71
2024/01/09 07:27:17;;;;;;;8.60;5.60;;;-5.00;99.90;;;;;;5115217;27;20090;-72
2024/01/09 07:29:43;;;;;;;7.97;4.20;;;-5.10;99.90;;;;;;5122001;27;20092;-72
2024/01/09 07:32:09;;;;;;;6.23;2.83;;;-5.10;99.90;;;;;;5115286;27;20034;-71
2024/01/09 07:34:34;;;;;;;9.47;6.83;;;-5.10;99.90;;;;;;5129687;27;20095;-71
2024/01/09 07:37:00;;;;;;;8.93;6.43;;;-5.10;99.90;;;;;;5118096;27;20039;-72
2024/01/09 07:39:29;;;;;;;8.57;7.20;;;-5.10;99.90;;;;;;5135248;27;20075;-71
2024/01/09 07:41:54;;;;;;;6.70;3.40;;;-5.10;99.90;;;;;;5108224;27;20042;-72
2024/01/09 07:44:20;;;;;;;7.70;4.00;;;-5.10;99.90;;;;;;5123611;27;20502;-72
2024/01/09 07:46:46;;;;;;;9.63;4.27;;;-5.10;99.90;;;;;;5117678;27;20042;-71
2024/01/09 07:49:12;;;;;;;8.80;6.00;;;-5.10;99.90;;;;;;5122389;27;20077;-71
2024/01/09 07:51:38;;;;;;;8.13;5.67;;;-5.10;99.90;;;;;;5120590;27;20476;-72
2024/01/09 07:54:04;;;;;;;7.57;5.17;;;-5.00;99.90;;;;;;5116460;27;20513;-71
2024/01/09 07:56:29;;;;;;;7.87;4.03;;;-5.10;99.90;;;;;;5121597;27;20043;-71
2024/01/09 07:58:58;;;;;;;8.77;6.13;;;-5.10;99.90;;;;;;5126784;27;20038;-72
2024/01/09 08:01:24;;;;;;;8.07;6.00;;;-5.10;99.90;;;;;;5120035;27;20043;-72
2024/01/09 08:03:50;;;;;;;8.63;4.63;;;-5.10;99.90;;;;;;5128312;27;20031;-72
2024/01/09 08:06:16;;;;;;;8.07;4.13;;;-5.00;99.90;;;;;;5114878;27;20108;-71
2024/01/09 08:08:43;;;;;;;7.63;5.20;;;-5.00;99.90;;;;;;5113825;27;20067;-68
2024/01/09 08:11:09;;;;;;;8.60;5.93;;;-5.00;99.90;;;;;;5116592;27;20503;-68
2024/01/09 08:13:36;;;;;;;8.70;6.40;;;-5.00;99.90;;;;;;5119726;27;20397;-68
2024/01/09 08:16:02;;;;;;;6.47;3.77;;;-5.00;99.90;;;;;;5118957;27;20507;-69
2024/01/09 08:18:29;;;;;;;8.07;5.77;;;-4.90;99.90;;;;;;5108052;27;20426;-69
2024/01/09 08:20:58;;;;;;;9.07;5.50;;;-4.90;99.90;;;;;;5116553;27;20397;-68
2024/01/09 08:23:24;;;;;;;8.68;5.93;;;-4.80;99.90;;;;;;5120618;27;20534;-69
2024/01/09 08:25:50;;;;;;;8.20;5.73;;;-4.80;99.90;;;;;;5111332;27;20039;-69
2024/01/09 08:28:16;;;;;;;8.33;3.80;;;-4.80;99.90;;;;;;5122347;27;20133;-69
2024/01/09 08:30:42;;;;;;;8.83;4.23;;;-4.80;99.90;;;;;;5110531;27;20447;-69
2024/01/09 08:33:07;;;;;;;7.83;4.10;;;-4.70;99.90;;;;;;5110793;27;20046;-69
2024/01/09 08:35:33;;;;;;;8.27;5.57;;;-4.70;99.90;;;;;;5108710;27;20519;-69
2024/01/09 08:37:59;;;;;;;8.90;5.87;;;-4.70;99.90;;;;;;5117914;27;20046;-69
2024/01/09 08:40:25;;;;;;;9.23;5.03;;;-4.70;99.90;;;;;;5117193;27;20136;-68
2024/01/09 08:42:51;;;;;;;7.30;5.30;;;-4.60;99.90;;;;;;5113292;27;20054;-69
2024/01/09 08:45:17;;;;;;;7.07;3.97;;;-4.60;99.90;;;;;;5101609;27;20043;-69
2024/01/09 08:47:43;;;;;;;10.00;5.57;;;-4.60;99.90;;;;;;5122626;27;20027;-69
2024/01/09 08:50:09;;;;;;;7.60;4.70;;;-4.50;99.90;;;;;;5117273;27;20047;-68
2024/01/09 08:52:35;;;;;;;5.33;2.50;;;-4.50;99.90;;;;;;5109018;27;20039;-68
2024/01/09 08:55:03;;;;;;;7.83;4.97;;;-4.50;99.90;;;;;;5113900;27;20043;-69
2024/01/09 08:57:29;;;;;;;9.60;5.50;;;-4.50;99.90;;;;;;5091325;27;20927;-69
2024/01/09 08:59:56;;;;;;;7.93;4.03;;;-4.40;99.90;;;;;;5116226;27;20502;-69
2024/01/09 09:02:22;;;;;;;8.90;5.43;;;-4.40;99.90;;;;;;5115816;27;20050;-69
2024/01/09 09:04:48;;;;;;;7.53;5.47;;;-4.40;99.90;;;;;;5116672;27;20970;-68
2024/01/09 09:07:14;;;;;;;5.57;3.23;;;-4.30;99.90;;;;;;5108451;27;20600;-68
2024/01/09 09:09:40;;;;;;;6.30;5.00;;;-4.30;99.90;;;;;;5114795;27;20070;-69
2024/01/09 09:12:06;;;;;;;6.97;3.47;;;-4.30;99.90;;;;;;5103344;27;20077;-69
2024/01/09 09:14:32;;;;;;;7.67;5.30;;;-4.20;99.90;;;;;;5126025;27;20031;-68
2024/01/09 09:16:58;;;;;;;8.37;5.30;;;-4.20;99.90;;;;;;5121195;27;20046;-68
2024/01/09 09:19:24;;;;;;;7.67;5.27;;;-4.10;99.90;;;;;;5102087;27;20059;-68
2024/01/09 09:21:50;;;;;;;6.07;3.80;;;-4.10;99.90;;;;;;5122507;27;20603;-68
2024/01/09 09:24:16;;;;;;;12.40;5.33;;;-4.00;99.90;;;;;;5104219;27;20042;-69
2024/01/09 09:26:42;;;;;;;7.40;4.97;;;-4.00;99.90;;;;;;5098054;27;20043;-68
2024/01/09 09:29:09;;;;;;;6.80;4.37;;;-4.00;99.90;;;;;;5117923;27;20039;-68
2024/01/09 09:31:35;;;;;;;7.10;4.80;;;-3.90;99.90;;;;;;5118294;27;20047;-69
2024/01/09 09:34:01;;;;;;;7.93;4.67;;;-3.90;99.90;;;;;;5116730;27;20053;-69
2024/01/09 09:36:27;;;;;;;9.13;5.43;;;-3.80;99.90;;;;;;5125112;27;20405;-69
2024/01/09 09:38:53;;;;;;;5.87;3.57;;;-3.80;99.90;;;;;;5108809;27;20074;-69
2024/01/09 09:41:22;;;;;;;8.37;4.73;;;-3.70;99.90;;;;;;5104878;27;20134;-68
2024/01/09 09:43:58;;;;;;;7.87;4.87;;;-3.60;99.90;;;;;;5121035;27;20162;-68
2024/01/09 09:46:29;;;;;;;7.53;5.10;;;-3.70;99.90;;;;;;5115950;27;20051;-69
2024/01/09 09:48:59;;;;;;;7.67;5.03;;;-3.60;99.90;;;;;;5111041;27;20031;-68
2024/01/09 09:51:29;;;;;;;7.95;5.32;;;-3.60;99.90;;;;;;5118075;27;20499;-69
2024/01/09 09:53:55;;;;;;;10.88;4.50;;;-3.50;99.90;;;;;;5120650;27;20557;-69
2024/01/09 09:56:22;;;;;;;7.20;4.63;;;-3.50;99.90;;;;;;5122556;27;20070;-69
2024/01/09 09:58:47;;;;;;;8.13;4.90;;;-3.40;99.90;;;;;;5110746;27;20492;-69
2024/01/09 10:01:14;;;;;;;7.07;4.43;;;-3.40;99.90;;;;;;5118365;27;20047;-68
2024/01/09 10:03:51;;;;;;;8.90;4.80;;;-3.30;99.90;;;;;;5119099;27;20066;-68
2024/01/09 10:06:18;;;;;;;6.57;3.07;;;-3.20;99.90;;;;;;5108508;27;20054;-67
2024/01/09 10:08:47;;;;;;;7.80;4.77;;;-3.20;99.90;;;;;;5118044;27;20035;-71
2024/01/09 10:11:13;;;;;;;7.70;4.87;;;-3.20;99.90;;;;;;5122942;27;20236;-71
2024/01/09 10:13:39;;;;;;;6.87;4.43;;;-3.10;99.90;;;;;;5096839;27;20035;-70
2024/01/09 10:16:05;;;;;;;12.30;4.97;;;-3.10;99.90;;;;;;5104106;27;20042;-71
2024/01/09 10:18:32;;;;;;;9.90;4.93;;;-3.00;99.90;;;;;;5128263;27;20054;-71
2024/01/09 10:21:01;;;;;;;6.70;4.40;;;-3.00;99.90;;;;;;5099045;27;20095;-71
2024/01/09 10:23:28;;;;;;;12.45;5.03;;;-3.00;99.90;;;;;;5118046;27;20038;-71
2024/01/09 10:25:58;;;;;;;8.40;4.63;;;-2.90;99.90;;;;;;5124157;27;20565;-71
2024/01/09 10:28:24;;;;;;;9.48;5.25;;;-2.90;99.90;;;;;;5129926;27;20043;-73
2024/01/09 10:30:53;;;;;;;6.87;3.43;;;-2.90;99.90;;;;;;5126918;27;20027;-73
2024/01/09 10:33:19;;;;;;;8.83;4.97;;;-2.80;99.90;;;;;;5105890;27;20070;-73
2024/01/09 10:35:45;;;;;;;7.40;4.40;;;-2.80;99.90;;;;;;5119271;27;20039;-74
2024/01/09 10:38:11;;;;;;;6.83;4.00;;;-2.70;99.90;;;;;;5122546;27;20125;-73
2024/01/09 10:40:37;;;;;;;7.33;4.77;;;-2.70;99.90;;;;;;5129329;27;20071;-73
2024/01/09 10:43:03;;;;;;;8.17;4.13;;;-2.60;99.90;;;;;;5126116;27;20043;-73
2024/01/09 10:45:32;;;;;;;5.97;4.23;;;-2.60;99.90;;;;;;5118130;27;20043;-74
2024/01/09 10:47:58;;;;;;;8.87;4.60;;;-2.50;99.90;;;;;;5129321;27;20050;-73
2024/01/09 10:50:25;;;;;;;7.20;4.87;;;-2.50;99.90;;;;;;5117159;27;20094;-73
2024/01/09 10:52:52;;;;;;;7.30;4.80;;;-2.50;99.90;;;;;;5129062;27;20031;-73
2024/01/09 10:55:20;;;;;;;7.77;4.60;;;-2.50;99.90;;;;;;5123984;27;20042;-74
2024/01/09 10:57:47;;;;;;;11.97;4.70;;;-2.40;99.90;;;;;;5130076;27;20106;-73
2024/01/09 11:00:13;;;;;;;6.67;4.37;;;-2.40;99.90;;;;;;5107059;27;20043;-74
2024/01/09 11:02:40;;;;;;;7.77;5.13;;;-2.40;99.90;;;;;;5113573;27;20058;-73
2024/01/09 11:05:07;;;;;;;6.60;4.33;;;-2.40;99.90;;;;;;5141416;27;20065;-74
2024/01/09 11:07:33;;;;;;;7.10;4.10;;;-2.30;99.90;;;;;;5126247;27;20054;-73
2024/01/09 11:10:00;;;;;;;8.37;4.67;;;-2.30;99.90;;;;;;5119033;27;20057;-73
2024/01/09 11:12:31;;;;;;;7.20;4.33;;;-2.30;99.90;;;;;;5126218;27;20066;-74
2024/01/09 11:15:23;;;;;;;7.68;4.55;;;-2.20;99.90;;;;;;5109147;27;20050;-73
2024/01/09 11:17:57;;;;;;;6.10;4.40;;;-2.20;99.90;;;;;;5108031;27;20054;-74
2024/01/09 11:20:23;;;;;;;7.10;4.20;;;-2.10;99.90;;;;;;5121914;27;21999;-73
2024/01/09 11:22:49;;;;;;;6.57;4.63;;;-2.10;99.90;;;;;;5118111;27;20039;-74
2024/01/09 11:25:20;;;;;;;7.30;4.53;;;-2.00;99.90;;;;;;5119731;27;20049;-73
2024/01/09 11:27:51;;;;;;;7.60;4.77;;;-1.90;99.90;;;;;;5124197;27;20703;-74
2024/01/09 11:30:21;;;;;;;8.63;4.37;;;-1.90;99.90;;;;;;5118087;27;20046;-74
2024/01/09 11:32:47;;;;;;;;;;;-1.90;99.90;;;;;;5117911;27;20034;-74
2024/01/09 11:35:18;;;;;;;10.77;4.80;;;-1.80;99.90;;;;;;5103647;27;19963;-74
2024/01/09 11:37:48;;;;;;;6.93;4.20;;;-1.80;99.90;;;;;;5132052;27;20034;-73
2024/01/09 11:40:16;;;;;;;7.10;4.30;;;-1.80;99.90;;;;;;5118671;27;20079;-74
2024/01/09 11:42:47;;;;;;;7.80;4.00;;;-1.80;99.90;;;;;;5120004;27;20041;-74
2024/01/09 11:45:20;;;;;;;6.40;4.20;;;-1.60;99.90;;;;;;5097729;27;20059;-74
2024/01/09 11:47:45;;;;;;;6.93;4.20;;;-1.60;99.90;;;;;;5124544;27;20062;-74
2024/01/09 11:50:12;;;;;;;6.13;3.93;;;-1.60;99.90;;;;;;5122557;27;20043;-71
2024/01/09 11:52:39;;;;;;;6.17;4.27;;;-1.60;99.90;;;;;;5116908;27;20039;-71
2024/01/09 11:55:07;;;;;;;4.97;3.60;;;-1.50;99.90;;;;;;5126628;27;20146;-72
2024/01/09 11:57:34;;;;;;;6.20;3.80;;;-1.40;99.90;;;;;;5119923;27;20115;-72
2024/01/09 12:00:02;;;;;;;6.57;4.10;;;-1.40;99.70;;;;;;5120650;27;20047;-72
2024/01/09 12:02:28;;;;;;;6.47;4.33;;;-1.40;99.90;;;;;;5112288;27;20118;-72
2024/01/09 12:04:54;;;;;;;5.20;3.60;;;-1.30;99.90;;;;;;5113908;27;20595;-72
2024/01/09 12:07:20;;;;;;;6.50;3.97;;;-1.30;99.40;;;;;;5112651;27;20046;-73
2024/01/09 12:09:50;;;;;;;6.03;3.97;;;-1.20;98.50;;;;;;5102544;27;20508;-72
2024/01/09 12:12:25;;;;;;;5.15;3.58;;;-1.20;98.50;;;;;;5120980;27;20110;-72
2024/01/09 12:14:55;;;;;;;6.50;4.30;;;-1.20;97.40;;;;;;5119365;27;20047;-72
2024/01/09 12:17:27;;;;;;;9.23;4.43;;;-1.10;98.00;;;;;;5122547;27;20481;-73
2024/01/09 12:19:56;;;;;;;5.03;3.83;;;-1.10;98.10;;;;;;5114062;27;20043;-72
2024/01/09 12:22:22;;;;;;;6.90;3.80;;;-1.10;97.50;;;;;;5118609;27;20535;-73
2024/01/09 12:24:53;;;;;;;5.27;3.77;;;-1.10;97.30;;;;;;5126788;27;20045;-73
2024/01/09 12:27:21;;;;;;;5.83;3.83;;;-1.10;97.00;;;;;;5115166;27;20162;-72
2024/01/09 12:29:47;;;;;;;6.93;4.10;;;-1.00;96.10;;;;;;5116649;27;20050;-72
2024/01/09 12:32:16;;;;;;;5.73;3.90;;;-1.00;95.50;;;;;;5115432;27;20046;-72
2024/01/09 12:34:42;;;;;;;11.10;3.93;;;-1.00;95.50;;;;;;5115263;27;20042;-72
2024/01/09 12:37:08;;;;;;;6.60;4.23;;;-1.00;95.80;;;;;;5119947;27;20097;-72
2024/01/09 12:39:37;;;;;;;5.80;3.80;;;-0.90;95.10;;;;;;5115462;27;20045;-73
2024/01/09 12:42:13;;;;;;;7.33;4.10;;;-0.90;95.70;;;;;;5122541;27;20103;-72